sensor_id;sensor_type;location;lat;lon;timestamp;pressure;altitude;pressure_sealevel;temperature;humidity
30021;BME280;16861;52.294;7.760;2023-02-15T00:01:49;101120.66;;;9.85;50.97
30021;BME280;16861;52.294;7.760;2023-02-15T00:04:18;101128.66;;;9.81;51.04
30021;BME280;16861;52.294;7.760;2023-02-15T00:06:45;101119.16;;;9.76;50.94
30021;BME280;16861;52.294;7.760;2023-02-15T00:09:12;101121.03;;;9.73;51.08
30021;BME280;16861;52.294;7.760;2023-02-15T00:11:39;101119.41;;;9.69;51.35
30021;BME280;16861;52.294;7.760;2023-02-15T00:14:12;101116.09;;;9.62;51.94
30021;BME280;16861;52.294;7.760;2023-02-15T00:16:39;101114.38;;;9.61;51.60
30021;BME280;16861;52.294;7.760;2023-02-15T00:19:07;101110.88;;;9.60;50.74
30021;BME280;16861;52.294;7.760;2023-02-15T00:21:35;101108.47;;;9.54;50.85
30021;BME280;16861;52.294;7.760;2023-02-15T00:24:03;101106.91;;;9.47;50.67
30021;BME280;16861;52.294;7.760;2023-02-15T00:26:30;101106.25;;;9.40;50.73
30021;BME280;16861;52.294;7.760;2023-02-15T00:28:57;101101.16;;;9.34;50.85
30021;BME280;16861;52.294;7.760;2023-02-15T00:31:29;101102.22;;;9.28;51.25
30021;BME280;16861;52.294;7.760;2023-02-15T00:34:09;101098.09;;;9.19;51.71
30021;BME280;16861;52.294;7.760;2023-02-15T00:36:37;101094.66;;;9.17;51.36
30021;BME280;16861;52.294;7.760;2023-02-15T00:39:04;101095.66;;;9.13;51.45
30021;BME280;16861;52.294;7.760;2023-02-15T00:41:34;101096.66;;;9.09;51.71
30021;BME280;16861;52.294;7.760;2023-02-15T00:44:00;101096.75;;;9.06;51.50
30021;BME280;16861;52.294;7.760;2023-02-15T00:46:27;101085.44;;;9.04;51.48
30021;BME280;16861;52.294;7.760;2023-02-15T00:48:53;101086.34;;;9.01;51.41
30021;BME280;16861;52.294;7.760;2023-02-15T00:51:20;101077.66;;;8.99;51.87
30021;BME280;16861;52.294;7.760;2023-02-15T00:53:47;101080.38;;;8.96;51.69
30021;BME280;16861;52.294;7.760;2023-02-15T00:56:14;101076.91;;;8.95;51.75
30021;BME280;16861;52.294;7.760;2023-02-15T00:58:40;101076.06;;;8.93;51.79
30021;BME280;16861;52.294;7.760;2023-02-15T01:01:12;101083.13;;;8.93;52.03
30021;BME280;16861;52.294;7.760;2023-02-15T01:03:39;101079.56;;;8.94;51.65
30021;BME280;16861;52.294;7.760;2023-02-15T01:06:08;101083.94;;;8.93;51.67
30021;BME280;16861;52.294;7.760;2023-02-15T01:08:35;101082.25;;;8.92;51.94
30021;BME280;16861;52.294;7.760;2023-02-15T01:11:07;101091.06;;;8.90;52.04
30021;BME280;16861;52.294;7.760;2023-02-15T01:13:35;101085.00;;;8.88;52.00
30021;BME280;16861;52.294;7.760;2023-02-15T01:16:02;101077.25;;;8.83;51.87
30021;BME280;16861;52.294;7.760;2023-02-15T01:18:30;101071.16;;;8.81;52.31
30021;BME280;16861;52.294;7.760;2023-02-15T01:20:57;101068.59;;;8.79;52.13
30021;BME280;16861;52.294;7.760;2023-02-15T01:23:23;101060.78;;;8.78;52.28
30021;BME280;16861;52.294;7.760;2023-02-15T01:25:50;101060.78;;;8.78;52.08
30021;BME280;16861;52.294;7.760;2023-02-15T01:28:16;101055.53;;;8.78;52.18
30021;BME280;16861;52.294;7.760;2023-02-15T01:30:43;101059.00;;;8.78;52.36
30021;BME280;16861;52.294;7.760;2023-02-15T01:33:10;101044.06;;;8.80;52.52
30021;BME280;16861;52.294;7.760;2023-02-15T01:35:47;101048.44;;;8.80;53.12
30021;BME280;16861;52.294;7.760;2023-02-15T01:38:14;101037.94;;;8.80;52.56
30021;BME280;16861;52.294;7.760;2023-02-15T01:40:40;101043.16;;;8.81;52.12
30021;BME280;16861;52.294;7.760;2023-02-15T01:43:11;101037.94;;;8.80;52.88
30021;BME280;16861;52.294;7.760;2023-02-15T01:45:38;101037.88;;;8.83;52.42
30021;BME280;16861;52.294;7.760;2023-02-15T01:48:22;101033.56;;;8.80;53.14
30021;BME280;16861;52.294;7.760;2023-02-15T01:50:54;101030.06;;;8.80;53.19
30021;BME280;16861;52.294;7.760;2023-02-15T01:53:36;101017.88;;;8.79;53.30
30021;BME280;16861;52.294;7.760;2023-02-15T01:56:15;101019.53;;;8.81;52.46
30021;BME280;16861;52.294;7.760;2023-02-15T01:58:44;101017.78;;;8.82;52.47
30021;BME280;16861;52.294;7.760;2023-02-15T02:01:11;101016.03;;;8.81;52.48
30021;BME280;16861;52.294;7.760;2023-02-15T02:06:14;101023.19;;;8.76;52.09
30021;BME280;16861;52.294;7.760;2023-02-15T02:08:41;101020.66;;;8.72;52.31
30021;BME280;16861;52.294;7.760;2023-02-15T02:11:12;101008.63;;;8.65;52.92
30021;BME280;16861;52.294;7.760;2023-02-15T02:13:43;101004.41;;;8.59;53.17
30021;BME280;16861;52.294;7.760;2023-02-15T02:16:17;101009.78;;;8.55;52.37
30021;BME280;16861;52.294;7.760;2023-02-15T02:19:11;101002.25;;;8.42;53.60
30021;BME280;16861;52.294;7.760;2023-02-15T02:27:29;101010.50;;;8.27;53.92
30021;BME280;16861;52.294;7.760;2023-02-15T02:44:04;101006.75;;;8.04;55.14
30021;BME280;16861;52.294;7.760;2023-02-15T02:46:48;100999.88;;;8.00;55.08
30021;BME280;16861;52.294;7.760;2023-02-15T02:49:17;100996.38;;;7.99;54.00
30021;BME280;16861;52.294;7.760;2023-02-15T02:51:43;100998.22;;;7.95;54.00
30021;BME280;16861;52.294;7.760;2023-02-15T02:54:10;100993.00;;;7.94;54.03
30021;BME280;16861;52.294;7.760;2023-02-15T02:56:43;100989.56;;;7.92;54.71
30021;BME280;16861;52.294;7.760;2023-02-15T02:59:17;100989.63;;;7.90;54.74
30021;BME280;16861;52.294;7.760;2023-02-15T03:01:55;100993.09;;;7.91;54.76
30021;BME280;16861;52.294;7.760;2023-02-15T03:04:28;100984.31;;;7.92;54.25
30021;BME280;16861;52.294;7.760;2023-02-15T03:07:00;100983.50;;;7.90;54.53
30021;BME280;16861;52.294;7.760;2023-02-15T03:09:31;100981.75;;;7.90;54.47
30021;BME280;16861;52.294;7.760;2023-02-15T03:12:29;100985.38;;;7.85;55.55
30021;BME280;16861;52.294;7.760;2023-02-15T03:20:09;100974.25;;;7.76;55.12
30021;BME280;16861;52.294;7.760;2023-02-15T03:22:42;100981.34;;;7.73;54.88
30021;BME280;16861;52.294;7.760;2023-02-15T03:25:14;100966.47;;;7.72;54.74
30021;BME280;16861;52.294;7.760;2023-02-15T03:27:47;100971.75;;;7.70;54.99
30021;BME280;16861;52.294;7.760;2023-02-15T03:30:18;100971.81;;;7.68;54.82
30021;BME280;16861;52.294;7.760;2023-02-15T03:32:49;100968.34;;;7.68;54.89
30021;BME280;16861;52.294;7.760;2023-02-15T03:35:20;100967.50;;;7.66;54.79
30021;BME280;16861;52.294;7.760;2023-02-15T03:37:56;100969.34;;;7.62;55.57
30021;BME280;16861;52.294;7.760;2023-02-15T03:40:51;100970.31;;;7.58;55.92
30021;BME280;16861;52.294;7.760;2023-02-15T03:46:20;100964.25;;;7.56;55.92
30021;BME280;16861;52.294;7.760;2023-02-15T03:48:53;100968.59;;;7.57;55.20
30021;BME280;16861;52.294;7.760;2023-02-15T03:51:24;100959.03;;;7.56;55.26
30021;BME280;16861;52.294;7.760;2023-02-15T03:54:27;100952.94;;;7.54;56.29
30021;BME280;16861;52.294;7.760;2023-02-15T03:57:20;100959.03;;;7.56;55.84
30021;BME280;16861;52.294;7.760;2023-02-15T04:00:25;100965.22;;;7.53;56.49
30021;BME280;16861;52.294;7.760;2023-02-15T04:05:46;100958.28;;;7.51;55.17
30021;BME280;16861;52.294;7.760;2023-02-15T04:08:13;100956.66;;;7.45;55.27
30021;BME280;16861;52.294;7.760;2023-02-15T04:10:39;100956.78;;;7.40;55.20
30021;BME280;16861;52.294;7.760;2023-02-15T04:13:23;100956.97;;;7.33;56.86
30021;BME280;16861;52.294;7.760;2023-02-15T04:15:51;100963.13;;;7.30;55.69
30021;BME280;16861;52.294;7.760;2023-02-15T04:18:33;100950.13;;;7.25;56.16
30021;BME280;16861;52.294;7.760;2023-02-15T04:21:20;100951.97;;;7.22;55.77
30021;BME280;16861;52.294;7.760;2023-02-15T04:24:06;100946.81;;;7.19;55.84
30021;BME280;16861;52.294;7.760;2023-02-15T04:26:52;100952.97;;;7.16;55.78
30021;BME280;16861;52.294;7.760;2023-02-15T04:29:22;100953.94;;;7.12;56.50
30021;BME280;16861;52.294;7.760;2023-02-15T04:31:50;100951.38;;;7.10;55.94
30021;BME280;16861;52.294;7.760;2023-02-15T04:34:18;100949.69;;;7.08;55.85
30021;BME280;16861;52.294;7.760;2023-02-15T04:36:45;100954.94;;;7.06;56.16
30021;BME280;16861;52.294;7.760;2023-02-15T04:39:16;100948.88;;;7.06;56.83
30021;BME280;16861;52.294;7.760;2023-02-15T04:41:43;100958.47;;;7.05;56.27
30021;BME280;16861;52.294;7.760;2023-02-15T04:44:10;100958.53;;;7.02;56.01
30021;BME280;16861;52.294;7.760;2023-02-15T04:46:37;100957.66;;;7.03;55.92
30021;BME280;16861;52.294;7.760;2023-02-15T04:49:03;100948.97;;;7.01;55.67
30021;BME280;16861;52.294;7.760;2023-02-15T04:51:30;100949.88;;;7.00;56.10
30021;BME280;16861;52.294;7.760;2023-02-15T04:53:56;100949.88;;;7.00;55.75
30021;BME280;16861;52.294;7.760;2023-02-15T04:56:23;100944.69;;;6.97;55.91
30021;BME280;16861;52.294;7.760;2023-02-15T04:58:50;100943.03;;;6.93;55.81
30021;BME280;16861;52.294;7.760;2023-02-15T05:01:17;100944.00;;;6.88;55.83
30021;BME280;16861;52.294;7.760;2023-02-15T05:03:44;100944.09;;;6.85;55.77
30021;BME280;16861;52.294;7.760;2023-02-15T05:06:10;100938.00;;;6.83;55.71
30021;BME280;16861;52.294;7.760;2023-02-15T05:08:37;100927.59;;;6.80;55.93
30021;BME280;16861;52.294;7.760;2023-02-15T05:11:03;100927.59;;;6.80;55.98
30021;BME280;16861;52.294;7.760;2023-02-15T05:13:30;100926.72;;;6.81;56.36
30021;BME280;16861;52.294;7.760;2023-02-15T05:15:56;100932.78;;;6.83;56.33
30021;BME280;16861;52.294;7.760;2023-02-15T05:18:23;100925.75;;;6.85;55.98
30021;BME280;16861;52.294;7.760;2023-02-15T05:20:50;100930.09;;;6.86;56.12
30021;BME280;16861;52.294;7.760;2023-02-15T05:23:16;100924.84;;;6.88;55.93
30021;BME280;16861;52.294;7.760;2023-02-15T05:25:47;100924.03;;;6.84;56.80
30021;BME280;16861;52.294;7.760;2023-02-15T05:28:32;100927.53;;;6.83;55.81
30021;BME280;16861;52.294;7.760;2023-02-15T05:31:03;100922.47;;;6.77;56.31
30021;BME280;16861;52.294;7.760;2023-02-15T05:33:30;100912.06;;;6.74;56.17
30021;BME280;16861;52.294;7.760;2023-02-15T05:35:57;100913.00;;;6.70;56.05
30021;BME280;16861;52.294;7.760;2023-02-15T05:38:24;100906.94;;;6.68;56.02
30021;BME280;16861;52.294;7.760;2023-02-15T05:40:51;100908.72;;;6.67;56.18
30021;BME280;16861;52.294;7.760;2023-02-15T05:43:17;100901.78;;;6.64;56.39
30021;BME280;16861;52.294;7.760;2023-02-15T05:45:52;100903.56;;;6.62;56.80
30021;BME280;16861;52.294;7.760;2023-02-15T05:48:20;100901.78;;;6.64;56.21
30021;BME280;16861;52.294;7.760;2023-02-15T05:51:06;100898.38;;;6.61;57.51
30021;BME280;16861;52.294;7.760;2023-02-15T05:53:35;100896.59;;;6.63;56.26
30021;BME280;16861;52.294;7.760;2023-02-15T05:56:03;100902.72;;;6.62;56.26
30021;BME280;16861;52.294;7.760;2023-02-15T05:58:33;100896.66;;;6.60;56.77
30021;BME280;16861;52.294;7.760;2023-02-15T06:01:07;100898.47;;;6.56;57.64
30021;BME280;16861;52.294;7.760;2023-02-15T06:03:34;100893.25;;;6.56;56.35
30021;BME280;16861;52.294;7.760;2023-02-15T06:06:01;100892.41;;;6.54;56.65
30021;BME280;16861;52.294;7.760;2023-02-15T06:08:31;100892.53;;;6.49;56.48
30021;BME280;16861;52.294;7.760;2023-02-15T06:10:57;100899.56;;;6.46;56.88
30021;BME280;16861;52.294;7.760;2023-02-15T06:13:24;100904.91;;;6.41;56.85
30021;BME280;16861;52.294;7.760;2023-02-15T06:15:50;100896.28;;;6.37;56.92
30021;BME280;16861;52.294;7.760;2023-02-15T06:18:17;100892.00;;;6.33;56.81
30021;BME280;16861;52.294;7.760;2023-02-15T06:20:47;100897.31;;;6.29;57.34
30021;BME280;16861;52.294;7.760;2023-02-15T06:23:14;100899.09;;;6.27;57.17
30021;BME280;16861;52.294;7.760;2023-02-15T06:25:41;100898.25;;;6.24;56.90
30021;BME280;16861;52.294;7.760;2023-02-15T06:28:07;100898.28;;;6.23;56.94
30021;BME280;16861;52.294;7.760;2023-02-15T06:30:34;100903.53;;;6.21;56.85
30021;BME280;16861;52.294;7.760;2023-02-15T06:33:01;100906.16;;;6.21;57.10
30021;BME280;16861;52.294;7.760;2023-02-15T06:35:27;100907.03;;;6.22;57.14
30021;BME280;16861;52.294;7.760;2023-02-15T06:37:53;100909.66;;;6.22;56.93
30021;BME280;16861;52.294;7.760;2023-02-15T06:40:20;100904.41;;;6.22;56.71
30021;BME280;16861;52.294;7.760;2023-02-15T06:42:46;100907.91;;;6.22;56.81
30021;BME280;16861;52.294;7.760;2023-02-15T06:45:13;100902.63;;;6.24;56.61
30021;BME280;16861;52.294;7.760;2023-02-15T06:47:39;100906.06;;;6.26;56.56
30021;BME280;16861;52.294;7.760;2023-02-15T06:50:07;100903.44;;;6.28;56.66
30021;BME280;16861;52.294;7.760;2023-02-15T06:52:34;100912.09;;;6.30;56.27
30021;BME280;16861;52.294;7.760;2023-02-15T06:55:00;100907.75;;;6.30;56.13
30021;BME280;16861;52.294;7.760;2023-02-15T06:57:27;100901.59;;;6.31;56.31
30021;BME280;16861;52.294;7.760;2023-02-15T06:59:53;100899.91;;;6.30;56.20
30021;BME280;16861;52.294;7.760;2023-02-15T07:02:20;100900.75;;;6.31;56.20
30021;BME280;16861;52.294;7.760;2023-02-15T07:04:46;100897.31;;;6.29;56.09
30021;BME280;16861;52.294;7.760;2023-02-15T07:07:13;100902.56;;;6.27;56.42
30021;BME280;16861;52.294;7.760;2023-02-15T07:09:40;100898.22;;;6.26;56.10
30021;BME280;16861;52.294;7.760;2023-02-15T07:12:07;100898.25;;;6.24;56.08
30021;BME280;16861;52.294;7.760;2023-02-15T07:14:52;100901.78;;;6.23;56.25
30021;BME280;16861;52.294;7.760;2023-02-15T07:17:18;100902.69;;;6.21;56.15
30021;BME280;16861;52.294;7.760;2023-02-15T07:20:04;100902.75;;;6.18;56.44
30021;BME280;16861;52.294;7.760;2023-02-15T07:22:31;100908.88;;;6.17;56.63
30021;BME280;16861;52.294;7.760;2023-02-15T07:25:00;100900.22;;;6.13;56.77
30021;BME280;16861;52.294;7.760;2023-02-15T07:27:26;100901.16;;;6.10;56.57
30021;BME280;16861;52.294;7.760;2023-02-15T07:29:53;100884.63;;;6.10;56.95
30021;BME280;16861;52.294;7.760;2023-02-15T07:32:19;100891.59;;;6.09;56.64
30021;BME280;16861;52.294;7.760;2023-02-15T07:34:46;100888.97;;;6.09;56.51
30021;BME280;16861;52.294;7.760;2023-02-15T07:37:13;100878.50;;;6.09;56.66
30021;BME280;16861;52.294;7.760;2023-02-15T07:39:39;100874.13;;;6.11;56.70
30021;BME280;16861;52.294;7.760;2023-02-15T07:42:06;100874.13;;;6.11;56.91
30021;BME280;16861;52.294;7.760;2023-02-15T07:44:32;100861.06;;;6.11;56.69
30021;BME280;16861;52.294;7.760;2023-02-15T07:46:58;100863.63;;;6.13;56.74
30021;BME280;16861;52.294;7.760;2023-02-15T07:49:25;100858.38;;;6.15;56.83
30021;BME280;16861;52.294;7.760;2023-02-15T07:51:51;100862.72;;;6.16;57.07
30021;BME280;16861;52.294;7.760;2023-02-15T07:54:18;100867.91;;;6.17;56.93
30021;BME280;16861;52.294;7.760;2023-02-15T07:56:45;100867.06;;;6.17;56.88
30021;BME280;16861;52.294;7.760;2023-02-15T07:59:11;100858.31;;;6.18;56.95
30021;BME280;16861;52.294;7.760;2023-02-15T08:01:38;100864.31;;;6.21;57.07
30021;BME280;16861;52.294;7.760;2023-02-15T08:04:07;100854.75;;;6.22;57.10
30021;BME280;16861;52.294;7.760;2023-02-15T08:06:36;100853.81;;;6.24;57.15
30021;BME280;16861;52.294;7.760;2023-02-15T08:09:04;100850.25;;;6.27;57.33
30021;BME280;16861;52.294;7.760;2023-02-15T08:11:34;100853.72;;;6.29;57.63
30021;BME280;16861;52.294;7.760;2023-02-15T08:14:07;100857.09;;;6.34;57.14
30021;BME280;16861;52.294;7.760;2023-02-15T08:16:36;100851.81;;;6.37;57.50
30021;BME280;16861;52.294;7.760;2023-02-15T08:19:05;100860.41;;;6.43;57.35
30021;BME280;16861;52.294;7.760;2023-02-15T08:21:32;100857.69;;;6.46;57.37
30021;BME280;16861;52.294;7.760;2023-02-15T08:24:00;100854.13;;;6.50;57.26
30021;BME280;16861;52.294;7.760;2023-02-15T08:26:27;100847.94;;;6.54;57.28
30021;BME280;16861;52.294;7.760;2023-02-15T08:28:54;100847.84;;;6.59;57.00
30021;BME280;16861;52.294;7.760;2023-02-15T08:31:22;100852.13;;;6.61;56.92
30021;BME280;16861;52.294;7.760;2023-02-15T08:33:51;100844.22;;;6.64;56.86
30021;BME280;16861;52.294;7.760;2023-02-15T08:36:20;100836.28;;;6.68;57.45
30021;BME280;16861;52.294;7.760;2023-02-15T08:38:48;100838.00;;;6.70;57.07
30021;BME280;16861;52.294;7.760;2023-02-15T08:41:17;100827.47;;;6.72;57.15
30021;BME280;16861;52.294;7.760;2023-02-15T08:43:47;100830.06;;;6.73;57.04
30021;BME280;16861;52.294;7.760;2023-02-15T08:46:14;100831.72;;;6.77;57.13
30021;BME280;16861;52.294;7.760;2023-02-15T08:48:41;100826.44;;;6.79;57.19
30021;BME280;16861;52.294;7.760;2023-02-15T08:51:18;100817.63;;;6.83;57.13
30021;BME280;16861;52.294;7.760;2023-02-15T08:53:47;100828.06;;;6.85;57.22
30021;BME280;16861;52.294;7.760;2023-02-15T08:56:18;100815.75;;;6.88;57.22
30021;BME280;16861;52.294;7.760;2023-02-15T08:58:46;100811.34;;;6.90;57.01
30021;BME280;16861;52.294;7.760;2023-02-15T09:01:18;100803.47;;;6.92;57.45
30021;BME280;16861;52.294;7.760;2023-02-15T09:03:48;100811.22;;;6.95;57.01
30021;BME280;16861;52.294;7.760;2023-02-15T09:06:16;100807.66;;;6.98;57.36
30021;BME280;16861;52.294;7.760;2023-02-15T09:08:43;100808.44;;;7.03;56.94
30021;BME280;16861;52.294;7.760;2023-02-15T09:11:12;100810.06;;;7.07;57.48
30021;BME280;16861;52.294;7.760;2023-02-15T09:13:39;100812.56;;;7.12;56.99
30021;BME280;16861;52.294;7.760;2023-02-15T09:16:08;100805.47;;;7.15;57.06
30021;BME280;16861;52.294;7.760;2023-02-15T09:21:42;100806.91;;;7.29;57.06
30021;BME280;16861;52.294;7.760;2023-02-15T09:24:11;100806.72;;;7.35;57.35
30021;BME280;16861;52.294;7.760;2023-02-15T09:26:41;100799.59;;;7.40;57.13
30021;BME280;16861;52.294;7.760;2023-02-15T09:29:08;100805.50;;;7.49;57.20
30021;BME280;16861;52.294;7.760;2023-02-15T09:31:44;100800.06;;;7.55;57.35
30021;BME280;16861;52.294;7.760;2023-02-15T09:34:12;100805.91;;;7.65;57.15
30021;BME280;16861;52.294;7.760;2023-02-15T09:36:40;100803.09;;;7.73;57.27
30021;BME280;16861;52.294;7.760;2023-02-15T09:52:59;100800.94;;;8.17;57.12
30021;BME280;16861;52.294;7.760;2023-02-15T09:55:48;100805.06;;;8.25;56.57
30021;BME280;16861;52.294;7.760;2023-02-15T10:03:57;100800.75;;;8.52;56.00
30021;BME280;16861;52.294;7.760;2023-02-15T10:06:36;100798.72;;;8.62;56.25
30021;BME280;16861;52.294;7.760;2023-02-15T10:14:46;100810.25;;;8.85;55.87
30021;BME280;16861;52.294;7.760;2023-02-15T10:20:17;100818.41;;;9.03;56.03
30021;BME280;16861;52.294;7.760;2023-02-15T10:23:11;100822.47;;;9.13;55.73
30021;BME280;16861;52.294;7.760;2023-02-15T10:28:18;100815.56;;;9.36;55.20
30021;BME280;16861;52.294;7.760;2023-02-15T10:30:50;100813.56;;;9.43;55.24
30021;BME280;16861;52.294;7.760;2023-02-15T10:47:03;100808.22;;;9.95;54.73
30021;BME280;16861;52.294;7.760;2023-02-15T10:52:33;100814.38;;;10.18;54.40
30021;BME280;16861;52.294;7.760;2023-02-15T10:57:57;100815.34;;;10.38;54.50
30021;BME280;16861;52.294;7.760;2023-02-15T11:00:35;100814.84;;;10.52;54.24
30021;BME280;16861;52.294;7.760;2023-02-15T11:03:11;100809.03;;;10.66;54.30
30021;BME280;16861;52.294;7.760;2023-02-15T11:08:16;100802.63;;;10.94;54.51
30021;BME280;16861;52.294;7.760;2023-02-15T11:10:54;100793.34;;;11.06;53.39
30021;BME280;16861;52.294;7.760;2023-02-15T11:13:25;100793.47;;;11.24;53.39
30021;BME280;16861;52.294;7.760;2023-02-15T11:15:59;100790.19;;;11.39;53.69
30021;BME280;16861;52.294;7.760;2023-02-15T11:21:07;100788.47;;;11.78;54.88
30021;BME280;16861;52.294;7.760;2023-02-15T11:23:42;100795.03;;;12.09;54.58
30021;BME280;16861;52.294;7.760;2023-02-15T11:26:15;100786.97;;;12.49;53.97
30021;BME280;16861;52.294;7.760;2023-02-15T11:28:59;100781.97;;;12.98;53.99
30021;BME280;16861;52.294;7.760;2023-02-15T11:31:37;100768.88;;;13.48;50.46
30021;BME280;16861;52.294;7.760;2023-02-15T11:34:29;100769.03;;;13.94;50.69
30021;BME280;16861;52.294;7.760;2023-02-15T11:37:27;100770.56;;;14.31;49.67
30021;BME280;16861;52.294;7.760;2023-02-15T11:39:55;100761.31;;;14.54;50.46
30021;BME280;16861;52.294;7.760;2023-02-15T11:42:23;100756.09;;;14.69;49.85
30021;BME280;16861;52.294;7.760;2023-02-15T11:47:22;100754.00;;;15.05;50.16
30021;BME280;16861;52.294;7.760;2023-02-15T11:49:49;100755.94;;;15.32;50.13
30021;BME280;16861;52.294;7.760;2023-02-15T11:52:17;100763.72;;;15.64;49.84
30021;BME280;16861;52.294;7.760;2023-02-15T11:54:49;100763.97;;;16.03;48.62
30021;BME280;16861;52.294;7.760;2023-02-15T11:59:50;100759.72;;;16.96;45.87
30021;BME280;16861;52.294;7.760;2023-02-15T12:02:21;100752.81;;;17.32;45.40
30021;BME280;16861;52.294;7.760;2023-02-15T12:04:54;100750.16;;;17.58;44.71
30021;BME280;16861;52.294;7.760;2023-02-15T12:07:30;100737.69;;;17.72;43.56
30021;BME280;16861;52.294;7.760;2023-02-15T12:10:05;100740.63;;;17.80;43.15
30021;BME280;16861;52.294;7.760;2023-02-15T12:12:40;100736.66;;;17.86;44.25
30021;BME280;16861;52.294;7.760;2023-02-15T12:15:09;100736.25;;;17.92;43.66
30021;BME280;16861;52.294;7.760;2023-02-15T12:17:53;100722.34;;;18.00;41.61
30021;BME280;16861;52.294;7.760;2023-02-15T12:20:32;100720.81;;;18.22;42.30
30021;BME280;16861;52.294;7.760;2023-02-15T12:23:15;100717.03;;;18.49;42.55
30021;BME280;16861;52.294;7.760;2023-02-15T12:25:51;100719.81;;;18.83;42.62
30021;BME280;16861;52.294;7.760;2023-02-15T12:31:32;100722.59;;;19.52;41.77
30021;BME280;16861;52.294;7.760;2023-02-15T12:33:57;100713.91;;;19.83;42.56
30021;BME280;16861;52.294;7.760;2023-02-15T12:36:38;100706.13;;;20.02;40.07
30021;BME280;16861;52.294;7.760;2023-02-15T12:41:57;100699.59;;;20.28;38.58
30021;BME280;16861;52.294;7.760;2023-02-15T12:44:30;100695.31;;;20.37;39.90
30021;BME280;16861;52.294;7.760;2023-02-15T12:47:26;100690.69;;;20.39;39.08
30021;BME280;16861;52.294;7.760;2023-02-15T12:52:45;100692.84;;;20.66;40.04
30021;BME280;16861;52.294;7.760;2023-02-15T12:55:26;100690.94;;;20.78;37.65
30021;BME280;16861;52.294;7.760;2023-02-15T12:58:33;100692.22;;;20.95;38.60
30021;BME280;16861;52.294;7.760;2023-02-15T13:03:38;100682.75;;;21.22;38.18
30021;BME280;16861;52.294;7.760;2023-02-15T13:06:05;100685.88;;;21.28;38.51
30021;BME280;16861;52.294;7.760;2023-02-15T13:08:39;100686.72;;;21.28;37.28
30021;BME280;16861;52.294;7.760;2023-02-15T13:11:11;100678.97;;;21.25;37.69
30021;BME280;16861;52.294;7.760;2023-02-15T13:13:54;100677.91;;;21.06;36.19
30021;BME280;16861;52.294;7.760;2023-02-15T13:16:41;100677.75;;;20.87;36.49
30021;BME280;16861;52.294;7.760;2023-02-15T13:19:17;100678.63;;;20.66;35.42
30021;BME280;16861;52.294;7.760;2023-02-15T13:21:51;100676.94;;;20.43;36.46
30021;BME280;16861;52.294;7.760;2023-02-15T13:24:43;100674.88;;;20.14;36.61
30021;BME280;16861;52.294;7.760;2023-02-15T13:27:15;100670.78;;;19.99;37.88
30021;BME280;16861;52.294;7.760;2023-02-15T13:29:54;100676.91;;;19.78;36.57
30021;BME280;16861;52.294;7.760;2023-02-15T13:32:37;100666.00;;;19.58;36.90
30021;BME280;16861;52.294;7.760;2023-02-15T13:35:05;100663.94;;;19.39;37.38
30021;BME280;16861;52.294;7.760;2023-02-15T13:40:07;100649.50;;;18.96;38.32
30021;BME280;16861;52.294;7.760;2023-02-15T13:42:46;100641.97;;;18.78;38.59
30021;BME280;16861;52.294;7.760;2023-02-15T13:48:08;100646.31;;;18.68;38.86
30021;BME280;16861;52.294;7.760;2023-02-15T13:51:00;100647.66;;;18.62;38.39
30021;BME280;16861;52.294;7.760;2023-02-15T13:53:56;100648.75;;;18.59;39.27
30021;BME280;16861;52.294;7.760;2023-02-15T14:02:36;100635.78;;;18.66;40.55
30021;BME280;16861;52.294;7.760;2023-02-15T14:05:22;100636.16;;;18.84;40.03
30021;BME280;16861;52.294;7.760;2023-02-15T14:10:37;100636.44;;;19.16;38.74
30021;BME280;16861;52.294;7.760;2023-02-15T14:13:33;100635.72;;;19.25;38.83
30021;BME280;16861;52.294;7.760;2023-02-15T14:16:03;100634.84;;;19.36;39.34
30021;BME280;16861;52.294;7.760;2023-02-15T14:18:41;100632.91;;;19.38;38.46
30021;BME280;16861;52.294;7.760;2023-02-15T14:21:30;100627.56;;;19.38;38.65
30021;BME280;16861;52.294;7.760;2023-02-15T14:24:23;100626.81;;;19.47;39.08
30021;BME280;16861;52.294;7.760;2023-02-15T14:26:54;100626.50;;;19.73;39.45
30021;BME280;16861;52.294;7.760;2023-02-15T14:32:15;100615.81;;;20.39;38.25
30021;BME280;16861;52.294;7.760;2023-02-15T14:34:54;100609.84;;;20.78;37.97
30021;BME280;16861;52.294;7.760;2023-02-15T14:37:57;100597.44;;;21.08;37.05
30021;BME280;16861;52.294;7.760;2023-02-15T14:43:48;100597.69;;;21.46;37.07
30021;BME280;16861;52.294;7.760;2023-02-15T14:46:49;100592.34;;;21.56;36.82
30021;BME280;16861;52.294;7.760;2023-02-15T14:49:29;100593.47;;;21.63;35.38
30021;BME280;16861;52.294;7.760;2023-02-15T14:52:00;100593.47;;;21.63;35.75
30021;BME280;16861;52.294;7.760;2023-02-15T15:05:32;100598.59;;;20.84;35.95
30021;BME280;16861;52.294;7.760;2023-02-15T15:08:01;100586.69;;;20.67;35.64
30021;BME280;16861;52.294;7.760;2023-02-15T15:10:45;100583.16;;;20.35;36.40
30021;BME280;16861;52.294;7.760;2023-02-15T15:13:54;100587.69;;;20.02;36.73
30021;BME280;16861;52.294;7.760;2023-02-15T15:32:47;100583.00;;;17.51;38.20
30021;BME280;16861;52.294;7.760;2023-02-15T15:35:37;100584.41;;;17.06;38.89
30021;BME280;16861;52.294;7.760;2023-02-15T15:38:23;100576.66;;;16.77;39.10
30021;BME280;16861;52.294;7.760;2023-02-15T15:49:19;100574.84;;;15.57;40.69
30021;BME280;16861;52.294;7.760;2023-02-15T15:51:46;100573.47;;;15.37;41.28
30021;BME280;16861;52.294;7.760;2023-02-15T15:54:19;100580.97;;;15.16;41.89
30021;BME280;16861;52.294;7.760;2023-02-15T15:56:49;100575.06;;;14.97;41.92
30021;BME280;16861;52.294;7.760;2023-02-15T15:59:21;100575.13;;;14.81;42.40
30021;BME280;16861;52.294;7.760;2023-02-15T16:01:49;100562.72;;;14.67;42.24
30021;BME280;16861;52.294;7.760;2023-02-15T16:04:31;100561.19;;;14.49;43.44
30021;BME280;16861;52.294;7.760;2023-02-15T16:09:58;100562.84;;;14.20;43.86
30021;BME280;16861;52.294;7.760;2023-02-15T16:12:30;100566.03;;;14.11;44.13